sensor_id;sensor_type;location;lat;lon;timestamp;temperature;humidity
10536;DHT22;5316;49.538;8.352;2023-12-20T00:00:55;6.00;99.90
10536;DHT22;5316;49.538;8.352;2023-12-20T00:03:23;6.00;99.90
10536;DHT22;5316;49.538;8.352;2023-12-20T00:05:50;6.00;99.90
10536;DHT22;5316;49.538;8.352;2023-12-20T00:08:21;6.00;99.90
10536;DHT22;5316;49.538;8.352;2023-12-20T00:10:48;6.00;99.90
10536;DHT22;5316;49.538;8.352;2023-12-20T00:13:18;6.00;99.90
10536;DHT22;5316;49.538;8.352;2023-12-20T00:15:50;6.00;99.90
10536;DHT22;5316;49.538;8.352;2023-12-20T00:18:17;6.00;99.90
10536;DHT22;5316;49.538;8.352;2023-12-20T00:20:49;6.00;99.90
10536;DHT22;5316;49.538;8.352;2023-12-20T00:23:16;6.00;99.90
10536;DHT22;5316;49.538;8.352;2023-12-20T00:25:44;6.00;99.90
10536;DHT22;5316;49.538;8.352;2023-12-20T00:28:13;6.00;99.90
10536;DHT22;5316;49.538;8.352;2023-12-20T00:30:40;5.90;99.90
10536;DHT22;5316;49.538;8.352;2023-12-20T00:33:07;6.00;99.90
10536;DHT22;5316;49.538;8.352;2023-12-20T00:35:34;6.00;99.90
10536;DHT22;5316;49.538;8.352;2023-12-20T00:38:01;5.90;99.90
10536;DHT22;5316;49.538;8.352;2023-12-20T00:40:33;6.00;99.90
10536;DHT22;5316;49.538;8.352;2023-12-20T00:43:07;5.90;99.90
10536;DHT22;5316;49.538;8.352;2023-12-20T00:45:34;5.90;99.90
10536;DHT22;5316;49.538;8.352;2023-12-20T00:48:02;5.90;99.90
10536;DHT22;5316;49.538;8.352;2023-12-20T00:50:32;6.00;99.90
10536;DHT22;5316;49.538;8.352;2023-12-20T00:52:59;5.90;99.90
10536;DHT22;5316;49.538;8.352;2023-12-20T00:55:31;5.90;99.90
10536;DHT22;5316;49.538;8.352;2023-12-20T00:57:58;5.90;99.90
10536;DHT22;5316;49.538;8.352;2023-12-20T01:00:27;5.90;99.90
10536;DHT22;5316;49.538;8.352;2023-12-20T01:02:54;5.90;99.90
10536;DHT22;5316;49.538;8.352;2023-12-20T01:05:21;5.90;99.90
10536;DHT22;5316;49.538;8.352;2023-12-20T01:07:54;5.90;99.90
10536;DHT22;5316;49.538;8.352;2023-12-20T01:10:20;5.90;99.90
10536;DHT22;5316;49.538;8.352;2023-12-20T01:12:48;5.90;99.90
10536;DHT22;5316;49.538;8.352;2023-12-20T01:15:18;5.90;99.90
10536;DHT22;5316;49.538;8.352;2023-12-20T01:17:49;5.80;99.90
10536;DHT22;5316;49.538;8.352;2023-12-20T01:20:17;5.80;99.90
10536;DHT22;5316;49.538;8.352;2023-12-20T01:22:45;5.80;99.90
10536;DHT22;5316;49.538;8.352;2023-12-20T01:25:12;5.80;99.90
10536;DHT22;5316;49.538;8.352;2023-12-20T01:27:40;5.80;99.90
10536;DHT22;5316;49.538;8.352;2023-12-20T01:30:08;5.80;99.90
10536;DHT22;5316;49.538;8.352;2023-12-20T01:32:39;5.80;99.90
10536;DHT22;5316;49.538;8.352;2023-12-20T01:35:08;5.80;99.90
10536;DHT22;5316;49.538;8.352;2023-12-20T01:37:37;5.80;99.90
10536;DHT22;5316;49.538;8.352;2023-12-20T01:40:05;5.80;99.90
10536;DHT22;5316;49.538;8.352;2023-12-20T01:42:33;5.70;99.90
10536;DHT22;5316;49.538;8.352;2023-12-20T01:45:00;5.70;99.90
10536;DHT22;5316;49.538;8.352;2023-12-20T01:47:27;5.70;99.90
10536;DHT22;5316;49.538;8.352;2023-12-20T01:49:55;5.70;99.90
10536;DHT22;5316;49.538;8.352;2023-12-20T01:52:24;5.70;99.90
10536;DHT22;5316;49.538;8.352;2023-12-20T01:54:52;5.70;99.90
10536;DHT22;5316;49.538;8.352;2023-12-20T01:57:20;5.60;99.90
10536;DHT22;5316;49.538;8.352;2023-12-20T01:59:48;5.70;99.90
10536;DHT22;5316;49.538;8.352;2023-12-20T02:02:14;5.70;99.90
10536;DHT22;5316;49.538;8.352;2023-12-20T02:04:43;5.70;99.90
10536;DHT22;5316;49.538;8.352;2023-12-20T02:07:12;5.70;99.90
10536;DHT22;5316;49.538;8.352;2023-12-20T02:09:43;5.70;99.90
10536;DHT22;5316;49.538;8.352;2023-12-20T02:12:11;5.60;99.90
10536;DHT22;5316;49.538;8.352;2023-12-20T02:14:41;5.60;99.90
10536;DHT22;5316;49.538;8.352;2023-12-20T02:17:08;5.70;99.90
10536;DHT22;5316;49.538;8.352;2023-12-20T02:19:35;5.70;99.90
10536;DHT22;5316;49.538;8.352;2023-12-20T02:22:08;5.70;99.90
10536;DHT22;5316;49.538;8.352;2023-12-20T02:24:35;5.60;99.90
10536;DHT22;5316;49.538;8.352;2023-12-20T02:27:03;5.80;99.90
10536;DHT22;5316;49.538;8.352;2023-12-20T02:29:30;5.70;99.90
10536;DHT22;5316;49.538;8.352;2023-12-20T02:31:57;5.70;99.90
10536;DHT22;5316;49.538;8.352;2023-12-20T02:34:24;5.70;99.90
10536;DHT22;5316;49.538;8.352;2023-12-20T02:36:51;5.70;99.90
10536;DHT22;5316;49.538;8.352;2023-12-20T02:39:20;5.70;99.90
10536;DHT22;5316;49.538;8.352;2023-12-20T02:41:48;5.70;99.90
10536;DHT22;5316;49.538;8.352;2023-12-20T02:44:15;5.70;99.90
10536;DHT22;5316;49.538;8.352;2023-12-20T02:46:41;5.70;99.90
10536;DHT22;5316;49.538;8.352;2023-12-20T02:49:08;5.70;99.90
10536;DHT22;5316;49.538;8.352;2023-12-20T02:51:35;5.80;99.90
10536;DHT22;5316;49.538;8.352;2023-12-20T02:54:04;5.70;99.90
10536;DHT22;5316;49.538;8.352;2023-12-20T02:56:32;5.80;99.90
10536;DHT22;5316;49.538;8.352;2023-12-20T02:58:59;5.80;99.90
10536;DHT22;5316;49.538;8.352;2023-12-20T03:01:26;5.70;99.90
10536;DHT22;5316;49.538;8.352;2023-12-20T03:03:53;5.80;99.90
10536;DHT22;5316;49.538;8.352;2023-12-20T03:06:20;5.70;99.90
10536;DHT22;5316;49.538;8.352;2023-12-20T03:08:47;5.80;99.90
10536;DHT22;5316;49.538;8.352;2023-12-20T03:11:14;5.80;99.90
10536;DHT22;5316;49.538;8.352;2023-12-20T03:13:42;5.70;99.90
10536;DHT22;5316;49.538;8.352;2023-12-20T03:16:09;5.70;99.90
10536;DHT22;5316;49.538;8.352;2023-12-20T03:18:39;5.70;99.90
10536;DHT22;5316;49.538;8.352;2023-12-20T03:21:06;5.70;99.90
10536;DHT22;5316;49.538;8.352;2023-12-20T03:23:33;5.70;99.90
10536;DHT22;5316;49.538;8.352;2023-12-20T03:26:00;5.80;99.90
10536;DHT22;5316;49.538;8.352;2023-12-20T03:28:27;5.70;99.90
10536;DHT22;5316;49.538;8.352;2023-12-20T03:30:55;5.70;99.90
10536;DHT22;5316;49.538;8.352;2023-12-20T03:33:22;5.80;99.90
10536;DHT22;5316;49.538;8.352;2023-12-20T03:35:51;5.80;99.90
10536;DHT22;5316;49.538;8.352;2023-12-20T03:38:18;5.70;99.90
10536;DHT22;5316;49.538;8.352;2023-12-20T03:40:44;5.80;99.90
10536;DHT22;5316;49.538;8.352;2023-12-20T03:43:11;5.80;99.90
10536;DHT22;5316;49.538;8.352;2023-12-20T03:45:38;5.80;99.90
10536;DHT22;5316;49.538;8.352;2023-12-20T03:48:07;5.80;99.90
10536;DHT22;5316;49.538;8.352;2023-12-20T03:50:34;5.90;99.90
10536;DHT22;5316;49.538;8.352;2023-12-20T03:53:00;6.00;99.90
10536;DHT22;5316;49.538;8.352;2023-12-20T03:55:27;6.00;99.90
10536;DHT22;5316;49.538;8.352;2023-12-20T03:57:54;5.90;99.90
10536;DHT22;5316;49.538;8.352;2023-12-20T04:00:21;6.00;99.90
10536;DHT22;5316;49.538;8.352;2023-12-20T04:02:48;6.00;99.90
10536;DHT22;5316;49.538;8.352;2023-12-20T04:05:16;6.10;99.90
10536;DHT22;5316;49.538;8.352;2023-12-20T04:07:43;6.10;99.90
10536;DHT22;5316;49.538;8.352;2023-12-20T04:10:12;6.10;99.90
10536;DHT22;5316;49.538;8.352;2023-12-20T04:12:39;6.10;99.90
10536;DHT22;5316;49.538;8.352;2023-12-20T04:15:07;6.20;99.90
10536;DHT22;5316;49.538;8.352;2023-12-20T04:17:34;6.20;99.90
10536;DHT22;5316;49.538;8.352;2023-12-20T04:20:02;6.10;99.90
10536;DHT22;5316;49.538;8.352;2023-12-20T04:22:30;6.10;99.90
10536;DHT22;5316;49.538;8.352;2023-12-20T04:24:57;6.10;99.90
10536;DHT22;5316;49.538;8.352;2023-12-20T04:27:23;6.10;99.90
10536;DHT22;5316;49.538;8.352;2023-12-20T04:29:53;6.00;99.90
10536;DHT22;5316;49.538;8.352;2023-12-20T04:32:24;6.10;99.90
10536;DHT22;5316;49.538;8.352;2023-12-20T04:35:07;6.10;99.90
10536;DHT22;5316;49.538;8.352;2023-12-20T04:38:04;6.00;99.90
10536;DHT22;5316;49.538;8.352;2023-12-20T04:40:53;6.00;99.90
10536;DHT22;5316;49.538;8.352;2023-12-20T04:43:20;6.00;99.90
10536;DHT22;5316;49.538;8.352;2023-12-20T04:45:47;6.00;99.90
10536;DHT22;5316;49.538;8.352;2023-12-20T04:48:17;6.00;99.90
10536;DHT22;5316;49.538;8.352;2023-12-20T04:50:43;5.90;99.90
10536;DHT22;5316;49.538;8.352;2023-12-20T04:53:16;6.00;99.90
10536;DHT22;5316;49.538;8.352;2023-12-20T04:55:48;6.00;99.90
10536;DHT22;5316;49.538;8.352;2023-12-20T04:58:20;6.00;99.90
10536;DHT22;5316;49.538;8.352;2023-12-20T05:00:51;6.00;99.90
10536;DHT22;5316;49.538;8.352;2023-12-20T05:03:18;6.10;99.90
10536;DHT22;5316;49.538;8.352;2023-12-20T05:05:45;6.10;99.90
10536;DHT22;5316;49.538;8.352;2023-12-20T05:08:12;6.10;99.90
10536;DHT22;5316;49.538;8.352;2023-12-20T05:10:40;6.20;99.90
10536;DHT22;5316;49.538;8.352;2023-12-20T05:13:06;6.20;99.90
10536;DHT22;5316;49.538;8.352;2023-12-20T05:15:34;6.20;99.90
10536;DHT22;5316;49.538;8.352;2023-12-20T05:18:01;6.20;99.90
10536;DHT22;5316;49.538;8.352;2023-12-20T05:20:28;6.20;99.90
10536;DHT22;5316;49.538;8.352;2023-12-20T05:22:54;6.20;99.90
10536;DHT22;5316;49.538;8.352;2023-12-20T05:25:21;6.30;99.90
10536;DHT22;5316;49.538;8.352;2023-12-20T05:27:50;6.30;99.90
10536;DHT22;5316;49.538;8.352;2023-12-20T05:30:17;6.40;99.90
10536;DHT22;5316;49.538;8.352;2023-12-20T05:32:44;6.40;99.90
10536;DHT22;5316;49.538;8.352;2023-12-20T05:35:11;6.40;99.90
10536;DHT22;5316;49.538;8.352;2023-12-20T05:37:38;6.40;99.90
10536;DHT22;5316;49.538;8.352;2023-12-20T05:40:06;6.30;99.90
10536;DHT22;5316;49.538;8.352;2023-12-20T05:42:35;6.30;99.90
10536;DHT22;5316;49.538;8.352;2023-12-20T05:45:04;6.20;99.90
10536;DHT22;5316;49.538;8.352;2023-12-20T05:47:32;6.20;99.90
10536;DHT22;5316;49.538;8.352;2023-12-20T05:49:58;6.20;99.90
10536;DHT22;5316;49.538;8.352;2023-12-20T05:52:25;6.10;99.90
10536;DHT22;5316;49.538;8.352;2023-12-20T05:54:52;6.10;99.90
10536;DHT22;5316;49.538;8.352;2023-12-20T05:57:19;6.00;99.90
10536;DHT22;5316;49.538;8.352;2023-12-20T05:59:45;6.00;99.90
10536;DHT22;5316;49.538;8.352;2023-12-20T06:02:13;5.90;99.90
10536;DHT22;5316;49.538;8.352;2023-12-20T06:04:42;5.90;99.90
10536;DHT22;5316;49.538;8.352;2023-12-20T06:07:11;5.80;99.90
10536;DHT22;5316;49.538;8.352;2023-12-20T06:09:38;5.90;99.90
10536;DHT22;5316;49.538;8.352;2023-12-20T06:12:06;5.80;99.90
10536;DHT22;5316;49.538;8.352;2023-12-20T06:14:33;5.80;99.90
10536;DHT22;5316;49.538;8.352;2023-12-20T06:17:00;5.70;99.90
10536;DHT22;5316;49.538;8.352;2023-12-20T06:19:29;5.70;99.90
10536;DHT22;5316;49.538;8.352;2023-12-20T06:21:55;5.60;99.90
10536;DHT22;5316;49.538;8.352;2023-12-20T06:24:24;5.60;99.90
10536;DHT22;5316;49.538;8.352;2023-12-20T06:26:53;5.60;99.90
10536;DHT22;5316;49.538;8.352;2023-12-20T06:29:20;5.50;99.90
10536;DHT22;5316;49.538;8.352;2023-12-20T06:31:47;5.50;99.90
10536;DHT22;5316;49.538;8.352;2023-12-20T06:34:14;5.60;99.90
10536;DHT22;5316;49.538;8.352;2023-12-20T06:36:42;5.40;99.90
10536;DHT22;5316;49.538;8.352;2023-12-20T06:39:09;5.40;99.90
10536;DHT22;5316;49.538;8.352;2023-12-20T06:41:38;5.40;99.90
10536;DHT22;5316;49.538;8.352;2023-12-20T06:44:05;5.40;99.90
10536;DHT22;5316;49.538;8.352;2023-12-20T06:46:32;5.30;99.90
10536;DHT22;5316;49.538;8.352;2023-12-20T06:48:59;5.40;99.90
10536;DHT22;5316;49.538;8.352;2023-12-20T06:51:25;5.40;99.90
10536;DHT22;5316;49.538;8.352;2023-12-20T06:53:54;5.30;99.90
10536;DHT22;5316;49.538;8.352;2023-12-20T06:56:20;5.40;99.90
10536;DHT22;5316;49.538;8.352;2023-12-20T06:58:47;5.40;99.90
10536;DHT22;5316;49.538;8.352;2023-12-20T07:01:15;5.40;99.90
10536;DHT22;5316;49.538;8.352;2023-12-20T07:03:42;5.30;99.90
10536;DHT22;5316;49.538;8.352;2023-12-20T07:06:09;5.30;99.90
10536;DHT22;5316;49.538;8.352;2023-12-20T07:08:35;5.40;99.90
10536;DHT22;5316;49.538;8.352;2023-12-20T07:11:04;5.40;99.90
10536;DHT22;5316;49.538;8.352;2023-12-20T07:13:30;5.30;99.90
10536;DHT22;5316;49.538;8.352;2023-12-20T07:15:57;5.30;99.90
10536;DHT22;5316;49.538;8.352;2023-12-20T07:18:24;5.30;99.90
10536;DHT22;5316;49.538;8.352;2023-12-20T07:20:51;5.30;99.90
10536;DHT22;5316;49.538;8.352;2023-12-20T07:23:20;5.40;99.90
10536;DHT22;5316;49.538;8.352;2023-12-20T07:25:48;5.30;99.90
10536;DHT22;5316;49.538;8.352;2023-12-20T07:28:17;5.30;99.90
10536;DHT22;5316;49.538;8.352;2023-12-20T07:30:43;5.40;99.90
10536;DHT22;5316;49.538;8.352;2023-12-20T07:33:10;5.40;99.90
10536;DHT22;5316;49.538;8.352;2023-12-20T07:35:37;5.40;99.90
10536;DHT22;5316;49.538;8.352;2023-12-20T07:38:04;5.40;99.90
10536;DHT22;5316;49.538;8.352;2023-12-20T07:40:32;5.40;99.90
10536;DHT22;5316;49.538;8.352;2023-12-20T07:42:58;5.40;99.90
10536;DHT22;5316;49.538;8.352;2023-12-20T07:45:29;5.40;99.90
10536;DHT22;5316;49.538;8.352;2023-12-20T07:47:56;5.50;99.90
10536;DHT22;5316;49.538;8.352;2023-12-20T07:50:23;5.50;99.90
10536;DHT22;5316;49.538;8.352;2023-12-20T07:52:49;5.50;99.90
10536;DHT22;5316;49.538;8.352;2023-12-20T07:55:16;5.50;99.90
10536;DHT22;5316;49.538;8.352;2023-12-20T07:57:43;5.60;99.90
10536;DHT22;5316;49.538;8.352;2023-12-20T08:00:10;5.60;99.90
10536;DHT22;5316;49.538;8.352;2023-12-20T08:02:39;5.60;99.90
10536;DHT22;5316;49.538;8.352;2023-12-20T08:05:06;5.70;99.90
10536;DHT22;5316;49.538;8.352;2023-12-20T08:07:33;5.70;99.90
10536;DHT22;5316;49.538;8.352;2023-12-20T08:10:00;5.70;99.90
10536;DHT22;5316;49.538;8.352;2023-12-20T08:12:26;5.80;99.90
10536;DHT22;5316;49.538;8.352;2023-12-20T08:14:54;5.80;99.90
10536;DHT22;5316;49.538;8.352;2023-12-20T08:17:20;5.80;99.90
10536;DHT22;5316;49.538;8.352;2023-12-20T08:19:50;5.90;99.90
10536;DHT22;5316;49.538;8.352;2023-12-20T08:22:19;5.90;99.90
10536;DHT22;5316;49.538;8.352;2023-12-20T08:24:46;5.80;99.90
10536;DHT22;5316;49.538;8.352;2023-12-20T08:27:13;5.80;99.90
10536;DHT22;5316;49.538;8.352;2023-12-20T08:29:40;5.80;99.90
10536;DHT22;5316;49.538;8.352;2023-12-20T08:32:17;5.80;99.90
10536;DHT22;5316;49.538;8.352;2023-12-20T08:35:00;5.80;99.90
10536;DHT22;5316;49.538;8.352;2023-12-20T08:37:43;5.80;99.90
10536;DHT22;5316;49.538;8.352;2023-12-20T08:40:21;5.80;99.90
10536;DHT22;5316;49.538;8.352;2023-12-20T08:42:52;5.80;99.90
10536;DHT22;5316;49.538;8.352;2023-12-20T08:45:32;5.90;99.90
10536;DHT22;5316;49.538;8.352;2023-12-20T08:47:58;5.90;99.90
10536;DHT22;5316;49.538;8.352;2023-12-20T08:50:27;5.90;99.90
10536;DHT22;5316;49.538;8.352;2023-12-20T08:52:55;5.90;99.90
10536;DHT22;5316;49.538;8.352;2023-12-20T08:55:25;5.90;99.90
10536;DHT22;5316;49.538;8.352;2023-12-20T08:57:54;6.00;99.90
10536;DHT22;5316;49.538;8.352;2023-12-20T09:00:24;6.00;99.90
10536;DHT22;5316;49.538;8.352;2023-12-20T09:02:56;6.00;99.90
10536;DHT22;5316;49.538;8.352;2023-12-20T09:05:23;6.00;99.90
10536;DHT22;5316;49.538;8.352;2023-12-20T09:07:54;6.10;99.90
10536;DHT22;5316;49.538;8.352;2023-12-20T09:10:24;6.10;99.90
10536;DHT22;5316;49.538;8.352;2023-12-20T09:12:53;6.20;99.90
10536;DHT22;5316;49.538;8.352;2023-12-20T09:15:22;6.10;99.90
10536;DHT22;5316;49.538;8.352;2023-12-20T09:17:50;6.20;99.90
10536;DHT22;5316;49.538;8.352;2023-12-20T09:20:17;6.30;99.90
10536;DHT22;5316;49.538;8.352;2023-12-20T09:22:44;6.30;94.10
10536;DHT22;5316;49.538;8.352;2023-12-20T09:25:12;6.40;99.90
10536;DHT22;5316;49.538;8.352;2023-12-20T09:27:42;6.40;99.90
10536;DHT22;5316;49.538;8.352;2023-12-20T09:30:15;6.60;99.90
10536;DHT22;5316;49.538;8.352;2023-12-20T09:32:43;6.50;99.90
10536;DHT22;5316;49.538;8.352;2023-12-20T09:35:10;6.60;90.70
10536;DHT22;5316;49.538;8.352;2023-12-20T09:37:37;6.60;29.50
10536;DHT22;5316;49.538;8.352;2023-12-20T09:40:13;6.70;44.40
10536;DHT22;5316;49.538;8.352;2023-12-20T09:42:58;6.70;37.60
10536;DHT22;5316;49.538;8.352;2023-12-20T09:45:25;6.70;26.90
10536;DHT22;5316;49.538;8.352;2023-12-20T09:47:53;6.70;46.10
10536;DHT22;5316;49.538;8.352;2023-12-20T09:50:25;6.80;33.80
10536;DHT22;5316;49.538;8.352;2023-12-20T09:52:53;6.70;20.10
10536;DHT22;5316;49.538;8.352;2023-12-20T09:55:29;6.80;1.00
10536;DHT22;5316;49.538;8.352;2023-12-20T09:58:02;6.80;1.00
10536;DHT22;5316;49.538;8.352;2023-12-20T10:00:32;6.80;12.20
10536;DHT22;5316;49.538;8.352;2023-12-20T10:02:59;6.90;1.00
10536;DHT22;5316;49.538;8.352;2023-12-20T10:05:30;6.80;1.00
10536;DHT22;5316;49.538;8.352;2023-12-20T10:07:59;6.90;1.00
10536;DHT22;5316;49.538;8.352;2023-12-20T10:10:28;6.90;1.00
10536;DHT22;5316;49.538;8.352;2023-12-20T10:13:05;6.90;1.00
10536;DHT22;5316;49.538;8.352;2023-12-20T10:15:37;7.00;1.00
10536;DHT22;5316;49.538;8.352;2023-12-20T10:18:05;7.00;1.00
10536;DHT22;5316;49.538;8.352;2023-12-20T10:20:41;7.00;1.00
10536;DHT22;5316;49.538;8.352;2023-12-20T10:23:08;7.10;1.00
10536;DHT22;5316;49.538;8.352;2023-12-20T10:25:40;7.10;1.00
10536;DHT22;5316;49.538;8.352;2023-12-20T10:28:12;7.20;1.00
10536;DHT22;5316;49.538;8.352;2023-12-20T10:30:40;7.30;1.00
10536;DHT22;5316;49.538;8.352;2023-12-20T10:33:10;7.30;1.00
10536;DHT22;5316;49.538;8.352;2023-12-20T10:35:38;7.30;1.00
10536;DHT22;5316;49.538;8.352;2023-12-20T10:38:06;7.40;1.00
10536;DHT22;5316;49.538;8.352;2023-12-20T10:40:39;7.40;1.00
10536;DHT22;5316;49.538;8.352;2023-12-20T10:43:15;7.40;1.00
10536;DHT22;5316;49.538;8.352;2023-12-20T10:46:03;7.40;1.00
10536;DHT22;5316;49.538;8.352;2023-12-20T10:48:39;7.30;99.90
10536;DHT22;5316;49.538;8.352;2023-12-20T10:51:14;7.30;1.00
10536;DHT22;5316;49.538;8.352;2023-12-20T10:57:12;7.30;1.00
10536;DHT22;5316;49.538;8.352;2023-12-20T10:59:43;7.30;1.00
10536;DHT22;5316;49.538;8.352;2023-12-20T11:02:26;7.30;1.00
10536;DHT22;5316;49.538;8.352;2023-12-20T11:05:12;7.30;1.00
10536;DHT22;5316;49.538;8.352;2023-12-20T11:07:59;7.20;1.00
10536;DHT22;5316;49.538;8.352;2023-12-20T11:10:43;7.20;1.00
10536;DHT22;5316;49.538;8.352;2023-12-20T11:13:34;7.20;1.00
10536;DHT22;5316;49.538;8.352;2023-12-20T11:16:22;7.20;1.00
10536;DHT22;5316;49.538;8.352;2023-12-20T11:18:52;7.20;1.00
10536;DHT22;5316;49.538;8.352;2023-12-20T11:21:33;7.20;1.00
10536;DHT22;5316;49.538;8.352;2023-12-20T11:24:06;7.20;1.00
10536;DHT22;5316;49.538;8.352;2023-12-20T11:26:34;7.20;1.00
10536;DHT22;5316;49.538;8.352;2023-12-20T11:29:33;7.20;1.00
10536;DHT22;5316;49.538;8.352;2023-12-20T11:32:27;7.20;1.00
10536;DHT22;5316;49.538;8.352;2023-12-20T11:34:56;7.20;1.00
10536;DHT22;5316;49.538;8.352;2023-12-20T11:37:29;7.20;1.00
10536;DHT22;5316;49.538;8.352;2023-12-20T11:40:01;7.20;1.00
10536;DHT22;5316;49.538;8.352;2023-12-20T11:42:33;7.20;1.00
10536;DHT22;5316;49.538;8.352;2023-12-20T11:45:08;7.20;1.00
10536;DHT22;5316;49.538;8.352;2023-12-20T11:47:40;7.20;1.00
10536;DHT22;5316;49.538;8.352;2023-12-20T11:50:12;7.20;1.00
10536;DHT22;5316;49.538;8.352;2023-12-20T11:52:39;7.20;1.00
10536;DHT22;5316;49.538;8.352;2023-12-20T11:55:06;7.20;1.00
10536;DHT22;5316;49.538;8.352;2023-12-20T11:57:34;7.20;1.00
10536;DHT22;5316;49.538;8.352;2023-12-20T12:00:01;7.20;1.00
10536;DHT22;5316;49.538;8.352;2023-12-20T12:02:30;7.30;1.00
10536;DHT22;5316;49.538;8.352;2023-12-20T12:04:59;7.30;1.00
10536;DHT22;5316;49.538;8.352;2023-12-20T12:07:27;7.20;1.00
10536;DHT22;5316;49.538;8.352;2023-12-20T12:09:56;7.20;1.00
10536;DHT22;5316;49.538;8.352;2023-12-20T12:12:24;7.20;1.00
10536;DHT22;5316;49.538;8.352;2023-12-20T12:14:53;7.20;1.00
10536;DHT22;5316;49.538;8.352;2023-12-20T12:17:22;7.20;1.00
10536;DHT22;5316;49.538;8.352;2023-12-20T12:19:50;7.20;1.00
10536;DHT22;5316;49.538;8.352;2023-12-20T12:22:17;7.20;1.00
10536;DHT22;5316;49.538;8.352;2023-12-20T12:24:46;7.20;1.00
10536;DHT22;5316;49.538;8.352;2023-12-20T12:27:17;7.30;1.00
10536;DHT22;5316;49.538;8.352;2023-12-20T12:30:00;7.20;1.00
10536;DHT22;5316;49.538;8.352;2023-12-20T12:32:27;7.20;1.00
10536;DHT22;5316;49.538;8.352;2023-12-20T12:34:56;7.20;1.00
10536;DHT22;5316;49.538;8.352;2023-12-20T12:37:24;7.20;1.00
10536;DHT22;5316;49.538;8.352;2023-12-20T12:39:53;7.20;1.00
10536;DHT22;5316;49.538;8.352;2023-12-20T12:42:21;7.20;1.00
10536;DHT22;5316;49.538;8.352;2023-12-20T12:44:51;7.20;1.00
10536;DHT22;5316;49.538;8.352;2023-12-20T12:47:18;7.20;99.90
10536;DHT22;5316;49.538;8.352;2023-12-20T12:49:45;7.20;99.90
10536;DHT22;5316;49.538;8.352;2023-12-20T12:52:13;7.20;1.00
10536;DHT22;5316;49.538;8.352;2023-12-20T12:54:40;7.20;1.00
10536;DHT22;5316;49.538;8.352;2023-12-20T12:57:08;7.20;99.90
10536;DHT22;5316;49.538;8.352;2023-12-20T12:59:35;7.20;99.90
10536;DHT22;5316;49.538;8.352;2023-12-20T13:02:02;7.30;99.90
10536;DHT22;5316;49.538;8.352;2023-12-20T13:04:29;7.30;1.00
10536;DHT22;5316;49.538;8.352;2023-12-20T13:06:56;7.40;99.90
10536;DHT22;5316;49.538;8.352;2023-12-20T13:09:24;7.30;99.90
10536;DHT22;5316;49.538;8.352;2023-12-20T13:11:51;7.30;99.90
10536;DHT22;5316;49.538;8.352;2023-12-20T13:14:18;7.30;99.90
10536;DHT22;5316;49.538;8.352;2023-12-20T13:16:46;7.30;1.00
10536;DHT22;5316;49.538;8.352;2023-12-20T13:19:13;7.30;1.00
10536;DHT22;5316;49.538;8.352;2023-12-20T13:21:40;7.40;1.00
10536;DHT22;5316;49.538;8.352;2023-12-20T13:24:07;7.40;1.00
10536;DHT22;5316;49.538;8.352;2023-12-20T13:26:35;7.40;1.00
10536;DHT22;5316;49.538;8.352;2023-12-20T13:29:03;7.40;1.00
10536;DHT22;5316;49.538;8.352;2023-12-20T13:31:32;7.30;1.00
10536;DHT22;5316;49.538;8.352;2023-12-20T13:34:04;7.40;99.90
10536;DHT22;5316;49.538;8.352;2023-12-20T13:36:46;7.40;1.00
10536;DHT22;5316;49.538;8.352;2023-12-20T13:39:15;7.40;1.00
10536;DHT22;5316;49.538;8.352;2023-12-20T13:41:45;7.50;1.00
10536;DHT22;5316;49.538;8.352;2023-12-20T13:44:13;7.50;1.00
10536;DHT22;5316;49.538;8.352;2023-12-20T13:46:41;7.50;1.00
10536;DHT22;5316;49.538;8.352;2023-12-20T13:49:08;7.50;99.90
10536;DHT22;5316;49.538;8.352;2023-12-20T13:51:37;7.60;1.00
10536;DHT22;5316;49.538;8.352;2023-12-20T13:54:04;7.50;1.00
10536;DHT22;5316;49.538;8.352;2023-12-20T13:56:31;7.60;1.00
10536;DHT22;5316;49.538;8.352;2023-12-20T13:59:00;7.60;1.00
10536;DHT22;5316;49.538;8.352;2023-12-20T14:01:27;7.70;99.90
10536;DHT22;5316;49.538;8.352;2023-12-20T14:03:54;7.70;99.90
10536;DHT22;5316;49.538;8.352;2023-12-20T14:06:22;7.70;99.90
10536;DHT22;5316;49.538;8.352;2023-12-20T14:08:49;7.70;99.90
10536;DHT22;5316;49.538;8.352;2023-12-20T14:11:16;7.80;99.90
10536;DHT22;5316;49.538;8.352;2023-12-20T14:13:44;8.00;99.90
10536;DHT22;5316;49.538;8.352;2023-12-20T14:16:13;8.00;99.90
10536;DHT22;5316;49.538;8.352;2023-12-20T14:18:40;8.10;94.50
10536;DHT22;5316;49.538;8.352;2023-12-20T14:21:06;8.10;13.60
10536;DHT22;5316;49.538;8.352;2023-12-20T14:23:33;8.20;1.00
10536;DHT22;5316;49.538;8.352;2023-12-20T14:26:01;8.10;1.00
10536;DHT22;5316;49.538;8.352;2023-12-20T14:28:29;8.10;1.00
10536;DHT22;5316;49.538;8.352;2023-12-20T14:30:55;8.00;35.80
10536;DHT22;5316;49.538;8.352;2023-12-20T14:33:24;8.00;99.90
10536;DHT22;5316;49.538;8.352;2023-12-20T14:35:52;7.90;99.90
10536;DHT22;5316;49.538;8.352;2023-12-20T14:38:19;7.90;99.90
10536;DHT22;5316;49.538;8.352;2023-12-20T14:40:45;7.70;99.90
10536;DHT22;5316;49.538;8.352;2023-12-20T14:43:13;7.70;99.90
10536;DHT22;5316;49.538;8.352;2023-12-20T14:45:41;7.60;99.90
10536;DHT22;5316;49.538;8.352;2023-12-20T14:48:08;7.60;99.90
10536;DHT22;5316;49.538;8.352;2023-12-20T14:50:36;7.60;99.90
10536;DHT22;5316;49.538;8.352;2023-12-20T14:53:03;7.50;99.90
10536;DHT22;5316;49.538;8.352;2023-12-20T14:55:30;7.50;1.00
10536;DHT22;5316;49.538;8.352;2023-12-20T14:57:57;7.50;99.90
10536;DHT22;5316;49.538;8.352;2023-12-20T15:00:23;7.50;99.90
10536;DHT22;5316;49.538;8.352;2023-12-20T15:02:50;7.50;99.90
10536;DHT22;5316;49.538;8.352;2023-12-20T15:05:17;7.40;99.90
10536;DHT22;5316;49.538;8.352;2023-12-20T15:07:45;7.40;1.00
10536;DHT22;5316;49.538;8.352;2023-12-20T15:10:13;7.40;1.00
10536;DHT22;5316;49.538;8.352;2023-12-20T15:12:40;7.30;1.00
10536;DHT22;5316;49.538;8.352;2023-12-20T15:15:08;7.30;1.00
10536;DHT22;5316;49.538;8.352;2023-12-20T15:17:35;7.30;1.00
10536;DHT22;5316;49.538;8.352;2023-12-20T15:20:02;7.20;1.00
10536;DHT22;5316;49.538;8.352;2023-12-20T15:22:30;7.10;1.00
10536;DHT22;5316;49.538;8.352;2023-12-20T15:25:00;7.10;1.00
10536;DHT22;5316;49.538;8.352;2023-12-20T15:27:28;7.10;1.00
10536;DHT22;5316;49.538;8.352;2023-12-20T15:29:55;7.10;1.00
10536;DHT22;5316;49.538;8.352;2023-12-20T15:32:22;7.10;1.00
10536;DHT22;5316;49.538;8.352;2023-12-20T15:34:49;7.00;1.00
10536;DHT22;5316;49.538;8.352;2023-12-20T15:37:17;7.00;1.00
10536;DHT22;5316;49.538;8.352;2023-12-20T15:39:44;7.00;1.00
10536;DHT22;5316;49.538;8.352;2023-12-20T15:42:13;7.00;1.00
10536;DHT22;5316;49.538;8.352;2023-12-20T15:44:40;7.00;1.00
10536;DHT22;5316;49.538;8.352;2023-12-20T15:47:07;6.90;1.00
10536;DHT22;5316;49.538;8.352;2023-12-20T15:49:33;6.90;1.00
10536;DHT22;5316;49.538;8.352;2023-12-20T15:52:01;6.90;1.00
10536;DHT22;5316;49.538;8.352;2023-12-20T15:54:28;6.90;1.00
10536;DHT22;5316;49.538;8.352;2023-12-20T15:56:54;6.90;1.00
10536;DHT22;5316;49.538;8.352;2023-12-20T15:59:24;6.90;1.00
10536;DHT22;5316;49.538;8.352;2023-12-20T16:01:51;6.90;1.00
10536;DHT22;5316;49.538;8.352;2023-12-20T16:04:18;7.00;1.00
10536;DHT22;5316;49.538;8.352;2023-12-20T16:06:45;7.00;1.00
10536;DHT22;5316;49.538;8.352;2023-12-20T16:09:37;7.00;1.00
10536;DHT22;5316;49.538;8.352;2023-12-20T16:12:05;7.10;1.00
10536;DHT22;5316;49.538;8.352;2023-12-20T16:14:33;7.10;1.00
10536;DHT22;5316;49.538;8.352;2023-12-20T16:17:00;7.10;1.00
10536;DHT22;5316;49.538;8.352;2023-12-20T16:19:33;7.20;1.00
10536;DHT22;5316;49.538;8.352;2023-12-20T16:22:00;8.20;1.00